createdAt,value
2022-11-21T00:03:04.119Z,70.99
2022-11-21T00:08:35.377Z,71.09
2022-11-21T00:14:06.808Z,70.73
2022-11-21T00:19:37.596Z,70.69
2022-11-21T00:25:09.585Z,70.99
2022-11-21T00:30:40.759Z,70.84
2022-11-21T00:36:11.792Z,71.31
2022-11-21T00:41:42.958Z,70.71
2022-11-21T00:47:13.795Z,70.57
2022-11-21T00:52:44.995Z,71.03
2022-11-21T00:58:15.820Z,70.67
2022-11-21T01:03:47.109Z,71.21
2022-11-21T01:09:18.539Z,71.23
2022-11-21T01:14:49.525Z,71.29
2022-11-21T01:20:20.857Z,71.37
2022-11-21T01:25:52.156Z,71.32
2022-11-21T01:31:26.221Z,70.93
2022-11-21T01:36:57.180Z,71.61
2022-11-21T01:42:28.392Z,70.79
2022-11-21T01:47:59.598Z,71.29
2022-11-21T01:53:30.662Z,71.04
2022-11-21T01:59:04.123Z,70.95
2022-11-21T02:04:35.747Z,71.63
2022-11-21T02:10:07.899Z,70.92
2022-11-21T02:15:39.042Z,71.40
2022-11-21T02:21:37.220Z,71.08
2022-11-21T02:27:08.455Z,71.55
2022-11-21T02:32:47.862Z,71.62
2022-11-21T02:38:37.678Z,71.70
2022-11-21T02:44:30.463Z,71.44
2022-11-21T02:50:13.321Z,71.37
2022-11-21T02:55:44.967Z,71.54
2022-11-21T03:01:16.047Z,71.60
2022-11-21T03:06:47.021Z,71.07
2022-11-21T03:12:18.268Z,71.70
2022-11-21T03:17:49.851Z,71.17
2022-11-21T03:23:21.130Z,71.57
2022-11-21T03:28:52.104Z,71.37
2022-11-21T03:34:23.382Z,71.43
2022-11-21T03:39:54.372Z,72.26
2022-11-21T03:45:25.758Z,71.36
2022-11-21T03:50:57.095Z,72.23
2022-11-21T03:56:28.634Z,72.11
2022-11-21T04:01:59.829Z,71.94
2022-11-21T04:07:30.995Z,72.37
2022-11-21T04:13:02.275Z,71.70
2022-11-21T04:18:34.938Z,71.83
2022-11-21T04:24:06.580Z,72.36
2022-11-21T04:29:37.535Z,71.99
2022-11-21T04:35:08.999Z,72.59
2022-11-21T04:40:40.772Z,72.33
2022-11-21T04:46:11.701Z,72.28
2022-11-21T04:51:42.799Z,72.39
2022-11-21T04:57:14.055Z,72.21
2022-11-21T05:02:45.411Z,72.28
2022-11-21T05:08:16.757Z,72.92
2022-11-21T05:13:47.695Z,72.51
2022-11-21T05:19:18.877Z,72.14
2022-11-21T05:24:50.032Z,72.36
2022-11-21T05:30:21.281Z,72.93
2022-11-21T05:35:52.326Z,72.38
2022-11-21T05:41:24.117Z,73.10
2022-11-21T05:46:55.448Z,72.78
2022-11-21T05:52:28.537Z,73.09
2022-11-21T05:58:00.902Z,73.29
2022-11-21T06:03:36.094Z,73.13
2022-11-21T06:09:06.935Z,73.26
2022-11-21T06:14:38.248Z,72.37
2022-11-21T06:20:10.505Z,72.95
2022-11-21T06:25:42.520Z,72.96
2022-11-21T06:31:19.120Z,73.33
2022-11-21T06:36:51.128Z,72.87
2022-11-21T06:42:22.422Z,73.67
2022-11-21T06:47:53.573Z,73.51
2022-11-21T06:53:24.649Z,73.18
2022-11-21T06:58:56.396Z,73.38
2022-11-21T07:04:27.989Z,72.93
2022-11-21T07:09:59.042Z,72.92
2022-11-21T07:15:30.150Z,73.20
2022-11-21T07:21:03.379Z,72.84
2022-11-21T07:26:34.660Z,73.48
2022-11-21T07:32:05.868Z,73.47
2022-11-21T07:37:40.405Z,73.38
2022-11-21T07:43:11.931Z,73.33
2022-11-21T07:48:42.798Z,73.04
2022-11-21T07:54:13.960Z,73.55
2022-11-21T07:59:45.894Z,72.83
2022-11-21T08:05:16.781Z,73.27
2022-11-21T08:10:48.139Z,73.50
2022-11-21T08:16:19.095Z,73.14
2022-11-21T08:21:50.455Z,72.94
2022-11-21T08:27:23.189Z,73.09
2022-11-21T08:32:54.369Z,73.82
2022-11-21T08:38:25.555Z,73.75
2022-11-21T08:43:56.781Z,73.92
2022-11-21T08:49:28.706Z,73.30
2022-11-21T08:54:59.910Z,73.64
2022-11-21T09:00:31.061Z,74.34
2022-11-21T09:06:03.491Z,73.86
2022-11-21T09:11:35.252Z,74.09
2022-11-21T09:17:29.686Z,73.66
2022-11-21T09:23:08.893Z,73.64
2022-11-21T09:28:41.605Z,74.08
2022-11-21T09:34:12.894Z,74.38
2022-11-21T09:39:44.140Z,74.86
2022-11-21T09:45:36.446Z,74.22
2022-11-21T09:51:12.770Z,74.06
2022-11-21T09:56:44.185Z,75.01
2022-11-21T10:02:18.218Z,74.64
2022-11-21T10:07:51.637Z,74.43
2022-11-21T10:13:37.177Z,74.51
2022-11-21T10:19:08.564Z,74.28
2022-11-21T10:25:03.830Z,74.10
2022-11-21T10:30:35.346Z,74.26
2022-11-21T10:36:14.187Z,74.52
2022-11-21T10:42:03.356Z,75.03
2022-11-21T10:47:37.850Z,74.42
2022-11-21T10:53:27.415Z,74.81
2022-11-21T10:59:01.662Z,74.97
2022-11-21T11:04:42.876Z,75.02
2022-11-21T11:10:27.793Z,74.45
2022-11-21T11:15:59.655Z,74.94
2022-11-21T11:21:41.790Z,75.12
2022-11-21T11:27:12.913Z,74.87
2022-11-21T11:32:44.049Z,74.96
2022-11-21T11:38:15.815Z,74.72
2022-11-21T11:44:28.388Z,75.22
2022-11-21T11:50:12.153Z,75.43
2022-11-21T11:56:03.042Z,74.84
2022-11-21T12:01:39.180Z,75.00
2022-11-21T12:13:12.102Z,74.60
2022-11-21T12:18:56.791Z,74.77
2022-11-21T12:24:27.844Z,75.21
2022-11-21T12:30:15.366Z,74.87
2022-11-21T12:36:18.833Z,75.24
2022-11-21T12:42:49.750Z,75.03
2022-11-21T12:48:49.391Z,75.24
2022-11-21T12:54:45.214Z,74.57
2022-11-21T13:00:40.412Z,74.60
2022-11-21T13:06:18.322Z,74.84
2022-11-21T13:12:00.892Z,74.36
2022-11-21T13:17:31.966Z,75.28
2022-11-21T13:23:07.279Z,74.98
2022-11-21T13:28:38.566Z,74.50
2022-11-21T13:34:31.461Z,74.18
2022-11-21T13:40:27.261Z,74.25
2022-11-21T13:45:59.524Z,74.06
2022-11-21T13:51:53.071Z,74.13
2022-11-21T13:57:42.682Z,74.00
2022-11-21T14:03:53.964Z,74.35
2022-11-21T14:09:27.604Z,74.24
2022-11-21T14:15:02.146Z,73.95
2022-11-21T14:20:54.080Z,74.36
2022-11-21T14:26:25.833Z,74.12
2022-11-21T14:31:57.001Z,74.35
2022-11-21T14:37:28.403Z,74.07
2022-11-21T14:43:01.362Z,74.11
2022-11-21T14:48:32.464Z,74.72
2022-11-21T14:54:04.440Z,74.54
2022-11-21T14:59:42.333Z,74.32
2022-11-21T15:05:21.274Z,74.05
2022-11-21T15:11:05.307Z,73.98
2022-11-21T15:16:36.567Z,74.51
2022-11-21T15:22:07.547Z,73.91
2022-11-21T15:27:38.811Z,74.23
2022-11-21T15:33:12.589Z,73.75
2022-11-21T15:38:49.980Z,74.11
2022-11-21T15:44:22.699Z,74.38
2022-11-21T15:49:53.660Z,74.42
2022-11-21T15:55:29.793Z,74.34
2022-11-21T16:01:01.049Z,74.13
2022-11-21T16:06:33.101Z,74.01
2022-11-21T16:12:04.767Z,74.12
2022-11-21T16:17:35.803Z,73.87
2022-11-21T16:23:07.149Z,74.08
2022-11-21T16:28:38.658Z,74.29
2022-11-21T16:34:09.975Z,74.23
2022-11-21T16:39:42.036Z,74.25
2022-11-21T16:45:13.205Z,74.06
2022-11-21T16:50:44.630Z,74.07
2022-11-21T16:56:16.553Z,74.17
2022-11-21T17:01:48.053Z,74.34
2022-11-21T17:07:19.678Z,74.21
2022-11-21T17:12:50.620Z,73.77
2022-11-21T17:18:22.081Z,74.13
2022-11-21T17:23:53.063Z,73.83
2022-11-21T17:29:24.430Z,73.66
2022-11-21T17:34:55.507Z,73.67
2022-11-21T17:40:26.806Z,74.13
2022-11-21T17:46:07.916Z,73.63
2022-11-21T17:51:40.891Z,73.39
2022-11-21T17:57:12.100Z,73.54
2022-11-21T18:02:43.333Z,73.88
2022-11-21T18:08:14.482Z,73.28
2022-11-21T18:13:46.080Z,73.29
2022-11-21T18:19:16.951Z,73.47
2022-11-21T18:24:47.894Z,73.15
2022-11-21T18:30:19.355Z,73.58
2022-11-21T18:35:50.370Z,73.25
2022-11-21T18:41:39.741Z,73.41
2022-11-21T18:47:20.045Z,73.46
2022-11-21T18:52:53.478Z,73.07
2022-11-21T18:58:26.626Z,72.56
2022-11-21T19:03:58.481Z,73.18
2022-11-21T19:09:32.492Z,73.17
2022-11-21T19:15:04.092Z,72.58
2022-11-21T19:20:39.437Z,72.93
2022-11-21T19:26:14.553Z,72.49
2022-11-21T19:31:46.206Z,72.96
2022-11-21T19:37:17.723Z,73.30
2022-11-21T19:42:48.906Z,73.03
2022-11-21T19:48:20.201Z,72.79
2022-11-21T19:53:51.495Z,72.92
2022-11-21T19:59:24.125Z,72.72
2022-11-21T20:04:55.535Z,72.37
2022-11-21T20:10:26.618Z,72.13
2022-11-21T20:15:57.640Z,72.12
2022-11-21T20:21:29.543Z,72.68
2022-11-21T20:27:00.666Z,71.89
2022-11-21T20:32:33.577Z,71.93
2022-11-21T20:38:04.626Z,71.57
2022-11-21T20:44:10.510Z,72.28
2022-11-21T20:49:26.894Z,71.83
2022-11-21T20:54:58.485Z,71.87
2022-11-21T21:00:29.731Z,71.98
2022-11-21T21:06:06.945Z,72.10
2022-11-21T21:11:52.040Z,71.46
2022-11-21T21:17:24.556Z,71.96
2022-11-21T21:22:56.517Z,71.96
2022-11-21T21:28:27.878Z,71.64
2022-11-21T21:34:00.967Z,71.78
2022-11-21T21:39:31.930Z,71.85
2022-11-21T21:45:03.390Z,72.38
2022-11-21T21:50:34.474Z,72.32
2022-11-21T21:56:06.865Z,72.57
2022-11-21T22:01:38.011Z,72.26
2022-11-21T22:07:09.476Z,72.02
2022-11-21T22:12:43.977Z,72.24
2022-11-21T22:18:15.545Z,71.83
2022-11-21T22:24:09.854Z,71.98
2022-11-21T22:29:38.922Z,71.64
2022-11-21T22:35:09.988Z,72.03
2022-11-21T22:40:41.236Z,71.99
2022-11-21T22:46:13.087Z,71.79
2022-11-21T22:51:44.268Z,71.29
2022-11-21T22:57:15.435Z,71.24
2022-11-21T23:02:46.658Z,71.33
2022-11-21T23:08:17.854Z,71.95
2022-11-21T23:13:49.791Z,71.45
2022-11-21T23:19:20.645Z,71.49
2022-11-21T23:24:51.969Z,71.31
2022-11-21T23:30:23.405Z,70.91
2022-11-21T23:35:54.856Z,71.10
2022-11-21T23:41:25.918Z,71.32
2022-11-21T23:46:57.318Z,71.16
2022-11-21T23:52:28.700Z,70.87
2022-11-21T23:57:59.755Z,70.90
